Beniamino Kalounaiwai

Recruteur en chef - Lautoka
18 Nov 2027
Jeudi
Processus

Personnalité

Adaptabilité (12) Ambition (6) Controverse (18) Loyauté (13) Pression (6) Professionnalisme (1) Sportivité (13) Tempérament (4)

Profil

Style d'entraînement Démocratique
Diplôme National A
Détermination 7
Gestion des joueurs 2
Motivation 6
Discipline 2
Satisfaction professionnelle
100%
Fatigue
0%
Rôle Recruteur en chef
Salaire 12.8K p/s
Contrat 14.03.2030

Performance

Comportement Bon
Efficacité de l'entraînement
24%
Développement des joueurs
5%
Prévention des blessures
20%
Mise en place tactique
35%

Événements récents

A évalué un joueur maintenant
A évalué un joueur maintenant
A participé à une réunion de recrutement maintenant
A évalué un joueur maintenant
A évalué un joueur maintenant
A évalué un joueur 7j
A évalué un joueur 7j
A évalué un joueur 7j

Suivi en cours

579
Joueur Club Statut Capacité Confiance Observé Dernière observation Dernier vote
Lungisani Mncwabe PSIM Actif 90 / 71 40% 4 17.11.2027 -
Cristian Lora Leones Actif 105 / 110 40% 4 17.11.2027 -
Tomás Ramírez Morón Actif 126 / 103 40% 2 17.11.2027 -
Joaquín Mateo Central Norte Actif 115 / 111 40% 1 17.11.2027 -
José Sanhueza Universidad de Concepcion Actif 93 / 89 40% 7 16.11.2027 -
Samuel Peréa Bogota Actif 83 / 81 40% 2 16.11.2027 -
Lucas González Estudiantes Actif 100 / 118 40% 3 16.11.2027 -
Santiago Ferez Belgrano Actif 115 / 103 40% 1 16.11.2027 -
Awan Setho Bhayangkara Presisi Actif 69 / 76 40% 2 15.11.2027 -
Óscar Vanegas Güemes Actif 97 / 120 40% 2 15.11.2027 -
Nhlonipho Mtshali Waitakere United Actif 75 / 75 40% 1 15.11.2027 -
Iván Camacho Patriotas Actif 78 / 100 40% 1 15.11.2027 -
Nahuel Frascone Arsenal Actif 109 / 109 40% 3 14.11.2027 -
Octávio Silva Artigas Actif 76 / 85 40% 2 14.11.2027 -
Diego Magallanes Defensores Actif 113 / 109 40% 2 14.11.2027 -
Joaquín Tonet Defensores Actif 95 / 91 40% 5 13.11.2027 -
Abel Argañaraz Gimnasia y Esgrima Actif 119 / 116 40% 2 13.11.2027 -
Gonzalo Asis Almagro Actif 119 / 107 40% 1 13.11.2027 -
Alan Ovelar Pontedera Actif 83 / 92 40% 1 13.11.2027 -
Khiani Shombe Hull City Actif 86 / 67 40% 3 12.11.2027 -
Nahuel Pezzini Arsenal Actif 108 / 109 40% 1 12.11.2027 -
Pablo da Silveira Cerro Actif 85 / 83 40% 4 11.11.2027 -
Luciano Peraggini Maipú Actif 99 / 122 40% 2 11.11.2027 -
Juan Bobba Estudiantes de Caracas Actif 97 / 95 40% 4 11.11.2027 -
Lautaro Bursich Talleres Actif 103 / 110 40% 2 10.11.2027 -
Roberto Ramírez Godoy Cruz Actif 121 / 106 40% 1 10.11.2027 -
Joaquín Bigo Tristán Suárez Actif 92 / 106 40% 4 09.11.2027 -
Michael Kelly Accrington Stanley Actif 81 / 73 40% 3 08.11.2027 -
Dylan Salvo Defensores Unidos Actif 114 / 102 40% 3 07.11.2027 -
Jorge Sanguina Colón Actif 123 / 97 40% 2 07.11.2027 -
Martín Almeida Montevideo City Torque Actif 94 / 104 40% 2 07.11.2027 -
Federico Acosta Miramar Misiones Actif 95 / 96 40% 3 07.11.2027 -
Facundo Machado Racing Actif 94 / 94 40% 1 07.11.2027 -
Manuel Muzzio Estudiantes Actif 98 / 103 40% 7 06.11.2027 -
Javier Bustillos Los Andes Actif 99 / 112 40% 7 06.11.2027 -
Ramiro Jara Racing Actif 98 / 89 40% 1 06.11.2027 -
Fidel Tourn Albion Actif 72 / 93 40% 2 05.11.2027 -
Juan Ignacio Dupont Central Espanol Actif 98 / 85 40% 4 05.11.2027 -
Facundo Pons San Martín Actif 120 / 101 40% 2 05.11.2027 -
Facundo Lemos Artigas Actif 85 / 80 40% 2 04.11.2027 -
Italo Espinoza San Martín Actif 104 / 118 40% 1 04.11.2027 -
Agustín Mieres Atlanta Actif 81 / 106 40% 6 03.11.2027 -
Rodrigo Fernández Alvarado Actif 96 / 81 40% 4 03.11.2027 -
Tomás Lecanda Agropecuario Argentino Actif 119 / 108 40% 1 03.11.2027 -
Nicolás Juárez Sarmiento Actif 103 / 121 40% 1 03.11.2027 -
Joaquín Avilés Cerrito Actif 86 / 82 40% 1 03.11.2027 -
Julio Patiño Fortaleza CEIF Actif 80 / 86 40% 2 01.11.2027 -
Santiago Briñone San Martín Actif 102 / 106 40% 4 01.11.2027 -
Maximiliano Arias Defensores Actif 74 / 87 40% 2 31.10.2027 -
Rodrigo Sosa Atlanta Actif 102 / 107 40% 4 31.10.2027 -
José Duarte Tacuarembo Actif 96 / 96 40% 3 31.10.2027 -
Eduardo Esterilla Deportes Quindio Actif 86 / 97 40% 1 31.10.2027 -
Mateo Pereyra Tacuarembo Actif 103 / 103 40% 3 30.10.2027 -
Pablo Viudez Rentistas Actif 113 / 104 40% 5 29.10.2027 -
Anthony da Costa Artigas Actif 91 / 74 40% 1 29.10.2027 -
Diego Robles Union Espanola Actif 93 / 88 40% 2 28.10.2027 -
Tom Norcott Reading Actif 66 / 96 40% 2 28.10.2027 -
Jack Phillips Pro Vercelli Actif 87 / 86 40% 2 28.10.2027 -
Kou Gotou Irtysh Actif 74 / 79 40% 1 28.10.2027 -
Maximo Ingravidi Colón Actif 96 / 101 40% 3 27.10.2027 -
Federico Álvarez Atlanta Actif 124 / 121 40% 3 27.10.2027 -
Harry Lee Mirandés Actif 76 / 94 40% 3 26.10.2027 -
Danil Baklanov Suva Actif 65 / 61 40% 3 26.10.2027 -
Elías Contreras Morón Actif 126 / 114 40% 11 25.10.2027 -
Oscar Savarino Llaneros Actif 95 / 97 40% 1 25.10.2027 -
Ariel Castellano Alvarado Actif 114 / 108 40% 1 25.10.2027 -
Matías Mansilla Alvarado Actif 105 / 91 40% 7 24.10.2027 -
Kolawole Oladipo Zhetysu Actif 76 / 91 40% 1 24.10.2027 -
Zakhele Shabangu Bnei Sakhnin Actif 83 / 81 40% 1 24.10.2027 -
Tiago Libares All Boys Actif 105 / 119 40% 5 23.10.2027 -
Marcelo Miño Ferro Carril Oeste Actif 118 / 109 40% 5 23.10.2027 -
Nicolás Baigorria San Telmo Actif 73 / 85 40% 2 23.10.2027 -
Dylan Cabral Arsenal Actif 95 / 108 40% 3 22.10.2027 -
Brian Okonkwo Leyton Orient Actif 86 / 92 40% 2 22.10.2027 -
Juan Cruz Carranza Nueva Chicago Actif 110 / 107 40% 2 22.10.2027 -
Nicolás Ferreyra Gimnasia y Esgrima Actif 95 / 97 40% 2 22.10.2027 -
Isa Aji Tobol Actif 88 / 64 40% 1 21.10.2027 -
Josh Jeffries Accrington Stanley Actif 69 / 75 40% 1 21.10.2027 -
Alejo Medina Agropecuario Argentino Actif 103 / 117 40% 3 20.10.2027 -
Lautaro Toledo Gimnasia y Esgrima Actif 104 / 102 40% 2 20.10.2027 -
Bayanda Zulu Aktobe Actif 64 / 88 40% 2 19.10.2027 -
Iván Fernández Colegiales Actif 107 / 82 40% 1 18.10.2027 -
Bonphas Munyasa Persebaya Actif 75 / 85 40% 1 18.10.2027 -
Nahuel Suárez La Luz Actif 124 / 107 40% 3 17.10.2027 -
Miguel Pernía Estudiantes de Caracas Actif 91 / 102 40% 2 16.10.2027 -
Brian Mancini Rampla Juniors Actif 72 / 75 40% 3 16.10.2027 -
Pablo Picón Floriana Actif 78 / 94 40% 1 16.10.2027 -
Lucas Camejo River Plate Actif 84 / 96 40% 1 16.10.2027 -
Gonzalo Larrazábal Deportivo Maldonado Actif 115 / 107 40% 2 15.10.2027 -
Joaquín Ochoa Giménez Arsenal Actif 90 / 95 40% 2 15.10.2027 -
Gaetano Motta Patronato Actif 103 / 108 40% 2 14.10.2027 -
Jerónimo Porto Lapegüe San Telmo Actif 119 / 104 40% 2 14.10.2027 -
Gian Piaggio Colón Actif 83 / 93 40% 1 14.10.2027 -
Nahuel Marzochi Colon Actif 102 / 85 40% 1 14.10.2027 -
Matías Rapetti Defensores Unidos Actif 107 / 114 40% 1 13.10.2027 -
Matías Samaniego Talleres Actif 89 / 108 40% 1 13.10.2027 -
Nicolás Fuica Deportivo Maldonado Actif 109 / 110 40% 2 11.10.2027 -
Juan Galetto Gimnasia y Tiro Actif 92 / 105 40% 1 11.10.2027 -
Valentino Werro Temperley Actif 114 / 107 40% 6 09.10.2027 -
Tomás Velásquez Deportes Tolima Actif 105 / 91 40% 4 09.10.2027 -
Julián Lobelos Arsenal Actif 113 / 108 40% 3 09.10.2027 -
Lucio Castillo Colegiales Actif 103 / 101 40% 1 09.10.2027 -
Agustín Tejera Fenix Actif 81 / 94 40% 1 09.10.2027 -
Santiago Valenzuela Chaco For Ever Actif 111 / 114 40% 5 08.10.2027 -
Marcelo Olivera Estudiantes Actif 91 / 95 40% 1 07.10.2027 -
Agustín Ojeda Chaco For Ever Actif 113 / 119 40% 3 06.10.2027 -
Bayron Martínez Santiago Wanderers Actif 94 / 105 40% 2 06.10.2027 -
Leandro Allende Colón Actif 114 / 122 40% 2 06.10.2027 -
James Sissons Chesterfield Actif 65 / 82 40% 1 06.10.2027 -
José Movillo O'Higgins Actif 83 / 81 40% 1 05.10.2027 -
Duván Riascos Deportes Quindio Actif 78 / 101 40% 1 05.10.2027 -
Jeremías Castro San Martín SJ Actif 81 / 102 40% 1 05.10.2027 -
Luis Yanes Real Cartagena Actif 94 / 105 40% 2 04.10.2027 -
Ifeagwu Ojukwu Atyrau Actif 107 / 86 40% 1 04.10.2027 -
Mathías Silvera Chaco For Ever Actif 101 / 109 40% 1 04.10.2027 -
Gabriel Cañete Los Andes Actif 108 / 104 40% 1 04.10.2027 -
Nazareno Kihm Ferro Carril Oeste Actif 109 / 115 40% 2 03.10.2027 -
Nicolás Moreno San Martín Actif 101 / 99 40% 1 03.10.2027 -
Mohammed Galadima Navbahor Actif 105 / 97 40% 1 02.10.2027 -
Santiago Rodríguez Fenix Actif 82 / 108 40% 1 02.10.2027 -
Agustín Zapata Alvarado Actif 93 / 96 40% 1 01.10.2027 -
Monwabisi Mwondla Aktobe Actif 66 / 66 40% 1 01.10.2027 -
Gabriel Ratalín San Telmo Actif 108 / 87 40% 4 30.09.2027 -
Agustín Lastra Estudiantes Actif 113 / 109 40% 3 29.09.2027 -
Ignacio Palacio All Boys Actif 105 / 115 40% 1 29.09.2027 -
Baurzhan Islamkhan Akzhaiyk Actif 92 / 104 40% 3 28.09.2027 -
Matthew Grech Birkirkara Actif 85 / 63 40% 2 26.09.2027 -
Matías Caballero Patronato Actif 108 / 115 40% 1 26.09.2027 -
Andrew Wogan Stockport County Actif 96 / 97 40% 1 24.09.2027 -
Arthur Nasta Stade Lavallois Actif 86 / 78 40% 3 23.09.2027 -
Francis Just Waitakere United Actif 75 / 84 40% 4 23.09.2027 -
Tomás Palleres Güemes Actif 97 / 107 40% 3 23.09.2027 -
Javohir Abdualimov Mashal Actif 75 / 74 40% 2 22.09.2027 -
Pieter Jacobsz Perth Glory Actif 97 / 106 40% 1 21.09.2027 -
Gonzalo Baglivo Colegiales Actif 104 / 84 40% 2 20.09.2027 -
Luciano Perdomo Chacarita Juniors Actif 113 / 125 40% 1 20.09.2027 -
Kit Margetson Swansea City Actif 57 / 82 40% 1 20.09.2027 -
Agustín Cañete Banfield Actif 87 / 96 40% 1 19.09.2027 -
Jorge Peña Union La Calera Actif 112 / 112 40% 1 19.09.2027 -
Cristian González Cerrito Actif 109 / 105 40% 2 18.09.2027 -
Miguel Álvarez Tigres Actif 77 / 98 40% 1 18.09.2027 -
Ilham Udin Armayn PSBS Biak Actif 91 / 96 40% 1 18.09.2027 -
Ignacio Vallejos Colegiales Actif 105 / 104 40% 1 18.09.2027 -
Ezequiel Pacheco Chaco For Ever Actif 82 / 85 40% 1 17.09.2027 -
Matías Pérez Alvarado Actif 98 / 97 40% 1 16.09.2027 -
Felipe Rivarola San Martín Actif 109 / 104 40% 1 16.09.2027 -
Gabriel Altamirano Almirante Brown Actif 107 / 122 40% 2 15.09.2027 -
Tomás Lingua Rentistas Actif 98 / 94 40% 2 15.09.2027 -
Gus Hoefsloot Sydney FC Actif 82 / 82 40% 1 15.09.2027 -
Francisco Gualtieri Estudiantes Actif 80 / 86 40% 3 14.09.2027 -
Mauricio Lacerda Miramar Misiones Actif 72 / 91 40% 5 13.09.2027 -
Cristián Pardo Universidad de Chile Actif 105 / 89 40% 1 13.09.2027 -
Sergio Pabón Deportes Quindio Actif 107 / 96 40% 1 12.09.2027 -
Angel Uñates Güemes Actif 107 / 91 40% 1 12.09.2027 -
Juan Manuel Carrizo Chaco For Ever Actif 99 / 118 40% 6 10.09.2027 -
Ben Purrington Cambridge United Actif 93 / 95 40% 4 10.09.2027 -
Leandro Córdoba Racing Actif 85 / 88 40% 2 08.09.2027 -
Reece Byrne Trapani Actif 67 / 87 40% 1 08.09.2027 -
Harrison Devenish-Meares Western Sydney Wanderers Actif 110 / 91 40% 1 06.09.2027 -
Rodrigo Monserrat Colegiales Actif 97 / 116 40% 1 06.09.2027 -
Mauro Rodas Sportivo Trinidense Actif 98 / 89 40% 1 05.09.2027 -
Juan Ignacio Berasi Colón Actif 94 / 87 40% 1 04.09.2027 -
Charlie Casper Leixões Actif 94 / 76 40% 2 03.09.2027 -
Mateo Natale Defensores Actif 97 / 100 40% 2 03.09.2027 -
Gabriel Salguero Rewa Actif 88 / 77 40% 2 02.09.2027 -
Franco Rivasseau Patronato Actif 102 / 103 40% 3 02.09.2027 -
James Stamatelopoulos Hawke's Bay United Actif 84 / 75 40% 1 02.09.2027 -
Manuel López Defensores Unidos Actif 86 / 112 40% 3 01.09.2027 -
Bobomurod Bozorov Qizilqum Actif 92 / 93 40% 1 01.09.2027 -
Federico Amestoy Miramar Misiones Actif 91 / 69 40% 4 30.08.2027 -
Ignacio Cardozo Vélez Actif 89 / 92 40% 4 29.08.2027 -
Joaquín Mendive Tristán Suárez Actif 106 / 102 40% 1 29.08.2027 -
Juan Ramírez Estudiantes de Caracas Actif 67 / 79 40% 1 28.08.2027 -
James Pradic Audace Cerignola Actif 69 / 80 40% 1 28.08.2027 -
Tom Donaghy Oldham Athletic Actif 86 / 60 40% 1 27.08.2027 -
Ignacio Coscio Huracán Actif 106 / 109 40% 2 25.08.2027 -
Juan Diego Pérez Real Santander Actif 85 / 76 40% 2 25.08.2027 -
Staša Bastić Gzira United Actif 103 / 88 40% 4 24.08.2027 -
Wahyudi Hamisi Persijap Actif 72 / 80 40% 2 24.08.2027 -
Mauro Alarcón Defensores Unidos Actif 117 / 92 40% 1 24.08.2027 -
Debinson Mateus Tigres Actif 101 / 90 40% 2 23.08.2027 -
Nicolás Forastiero Deportivo Maldonado Actif 109 / 96 40% 1 23.08.2027 -
Ethan Binnie Norwich City Actif 50 / 84 40% 1 22.08.2027 -
Evan Anderson Swansea City Actif 70 / 81 40% 1 22.08.2027 -
Augusto Alcorcel Colegiales Actif 98 / 95 40% 1 21.08.2027 -
Ramiro Fernández Almirante Brown Actif 103 / 107 40% 7 19.08.2027 -
Jackson Mendoza Valletta Actif 108 / 91 40% 4 18.08.2027 -
Callum Reid Southern United Actif 75 / 81 40% 6 17.08.2027 -
Matías Recalde Gimnasia y Esgrima Actif 105 / 112 40% 1 17.08.2027 -
Juan Román Gimenez Estudiantes Actif 95 / 88 40% 2 16.08.2027 -
Samuel Posada Leones Actif 91 / 88 40% 1 16.08.2027 -
Wladimir Cid Santiago Wanderers Actif 83 / 93 40% 1 16.08.2027 -
Marcos Donato Atenas Actif 73 / 80 40% 2 15.08.2027 -
José Luis García Alianza Petrolera Actif 90 / 98 40% 1 14.08.2027 -
Facundo Sosa La Luz Actif 105 / 111 40% 2 13.08.2027 -
Danilo Ruiz Díaz Agropecuario Argentino Actif 96 / 122 40% 1 13.08.2027 -
Ali Mekawir Navua Actif 62 / 63 40% 3 12.08.2027 -
Facundo Borges Central Espanol Actif 104 / 98 40% 2 12.08.2027 -
Mirko Parassole Agropecuario Argentino Actif 100 / 107 40% 1 12.08.2027 -
Francisco Silva Temperley Actif 84 / 99 40% 3 11.08.2027 -
Macula Birkirkara Actif 72 / 88 40% 1 11.08.2027 -
Matías Ledesma San Telmo Actif 89 / 115 40% 4 10.08.2027 -
Jonathan Marulanda Leones Actif 101 / 107 40% 1 10.08.2027 -
Iván Cabrera Arsenal Actif 116 / 101 40% 3 09.08.2027 -
Vicente Ramírez Universidad de Chile Actif 79 / 90 40% 1 09.08.2027 -
Nahuel Gallardo San Martín Actif 107 / 107 40% 3 08.08.2027 -
Lautaro Espeche Instituto Actif 84 / 93 40% 2 06.08.2027 -
Kane Smith Barnet Actif 80 / 86 40% 6 05.08.2027 -
Andres Lioi Chaco For Ever Actif 116 / 117 40% 3 05.08.2027 -
Chris Donnell Central Coast Mariners Actif 105 / 95 40% 5 03.08.2027 -
Francesco Rillo Picerno Actif 101 / 106 40% 1 03.08.2027 -
Federico Dafonte Boston River Actif 104 / 84 40% 3 01.08.2027 -
Navro'zbek Iminjonov Atyrau Actif 84 / 101 40% 1 01.08.2027 -
Matías Salerno San Telmo Actif 94 / 109 40% 2 31.07.2027 -
Hensen Anponsa Marsaxlokk Actif 76 / 96 40% 1 31.07.2027 -
Facundo Figueroa Defensores Unidos Actif 84 / 80 40% 2 28.07.2027 -
Franco Meritello Patronato Actif 109 / 107 40% 1 25.07.2027 -
Patrick Brough Tranmere Rovers Actif 72 / 76 40% 1 24.07.2027 -
Nicholas Pennington Perth Glory Actif 94 / 92 40% 1 23.07.2027 -
Sebastián Parada San Luis Actif 108 / 100 40% 1 22.07.2027 -
Christian Bracco Team Wellington Actif 73 / 92 40% 2 21.07.2027 -
Jonah James Mosta Actif 94 / 88 40% 1 21.07.2027 -
Theo Vassell Blackpool Actif 93 / 108 40% 1 21.07.2027 -
Hector Hernandez La Equidad Actif 99 / 103 40% 1 20.07.2027 -
Agustín Zabaleta Chaco For Ever Actif 85 / 95 40% 1 20.07.2027 -
Tom Bradbury Harrogate Town Actif 82 / 88 40% 3 19.07.2027 -
Carlos Hormazábal San Luis Actif 76 / 95 40% 1 18.07.2027 -
Myles Beerman Floriana Actif 62 / 81 40% 2 17.07.2027 -
Riccardo Brugnolo Dolomiti Bellunesi Actif 96 / 96 40% 1 17.07.2027 -
Jaiden Kucharski Perth Glory Actif 107 / 103 40% 1 16.07.2027 -
Domantas Šimkus Marsaxlokk Actif 98 / 103 40% 2 15.07.2027 -
Daniel Acosta Unión de Santa Fe Actif 108 / 102 40% 2 15.07.2027 -
Gabriel Carrasco Los Andes Actif 96 / 96 40% 2 15.07.2027 -
Tomás Díaz Grassano San Miguel Actif 102 / 108 40% 1 14.07.2027 -
Ronaldo Royero Depor Actif 100 / 87 40% 3 13.07.2027 -
Danilo Actis Agropecuario Argentino Actif 114 / 92 40% 1 13.07.2027 -
Lukas Kelly-Heald Wellington Phoenix Actif 111 / 99 40% 1 12.07.2027 -
Ian López Tacuarembo Actif 105 / 98 40% 3 11.07.2027 -
Pietro Reggiori Pro Patria Actif 100 / 102 40% 1 11.07.2027 -
Matías Canedo Rampla Juniors Actif 98 / 89 40% 1 11.07.2027 -
Fabricio Hass Central Norte Actif 100 / 119 40% 1 10.07.2027 -
Renato Alexandrino Oriental Actif 91 / 89 40% 1 09.07.2027 -
Tiago Taobas Central Norte Actif 75 / 93 40% 2 08.07.2027 -
Francis Hurl Shrewsbury Town Actif 87 / 84 40% 1 08.07.2027 -
Mariano Nichele Cerro Actif 103 / 97 40% 4 06.07.2027 -
Tomás Salteño Rosario Central Actif 94 / 95 40% 2 05.07.2027 -
Marley Tavaziva Boa Actif 87 / 68 40% 1 05.07.2027 -
Harold Sandoval Bogota Actif 86 / 74 40% 1 04.07.2027 -
Matías García San Martín Actif 93 / 105 40% 3 01.07.2027 -
Nikolai Muscat Marsaxlokk Actif 80 / 97 40% 2 01.07.2027 -
Diego Espindola Defensores Unidos Actif 98 / 119 40% 2 30.06.2027 -
Santiago Bellatti Patronato Actif 118 / 118 40% 1 30.06.2027 -
Giuseppe Salvo Picerno Actif 112 / 109 40% 1 26.06.2027 -
Rodrigo Russo Vélez Actif 70 / 90 40% 1 26.06.2027 -
Luke Hewitson Fleetwood Town Actif 70 / 95 40% 4 23.06.2027 -
Brayan Castro Bogota Actif 99 / 94 40% 1 23.06.2027 -
Jeremiah Okine-Peters Ospitaletto Actif 94 / 91 40% 4 22.06.2027 -
Juan José Vásquez Union Magdalena Actif 83 / 77 40% 2 21.06.2027 -
Nahuel Acosta Progreso Actif 106 / 111 40% 1 21.06.2027 -
Tomás Giménez Gimnasia y Esgrima Actif 115 / 103 40% 1 21.06.2027 -
Sebastián Cal Rampla Juniors Actif 82 / 90 40% 1 18.06.2027 -
Valentín Matlis San Telmo Actif 88 / 98 40% 3 17.06.2027 -
Rylee Mitchell Colchester United Actif 63 / 69 40% 1 16.06.2027 -
Tom Finch Milton Keynes Dons Actif 72 / 60 40% 2 15.06.2027 -
Daniel Ferraresi Llaneros Actif 96 / 73 40% 1 15.06.2027 -
Vicente Bernedo Universidad Catolica Actif 86 / 107 40% 1 15.06.2027 -
James Dadge Northampton Town Actif 74 / 70 40% 1 14.06.2027 -
Ali Auglah Central Coast Mariners Actif 81 / 93 40% 4 13.06.2027 -
Agustín Díaz Estudiantes de Caracas Actif 70 / 63 40% 1 13.06.2027 -
Luciano Acosta Agropecuario Argentino Actif 90 / 84 40% 1 12.06.2027 -
Harry Evans Feirense Actif 71 / 95 40% 5 08.06.2027 -
Nathan Amanatidis Brisbane Roar Actif 79 / 87 40% 2 08.06.2027 -
Frank Ruiz Once Caldas Actif 82 / 96 40% 1 08.06.2027 -
Luciano Zannier Talleres Actif 95 / 101 40% 1 07.06.2027 -
Emanuele Occhipinti Giana Erminio Actif 96 / 68 40% 1 07.06.2027 -
Barrie Limoki Nadroga Actif 54 / 75 51% 1 03.06.2027 -
Ahmad Noviandani Madura United Actif 99 / 79 40% 2 30.05.2027 -
Alejandro Amaya Cortulua Actif 81 / 94 40% 1 30.05.2027 -
José Álvarez Albion Actif 102 / 119 40% 2 27.05.2027 -
Reece Evans Reading Actif 83 / 78 40% 2 26.05.2027 -
Joel Lucero Estudiantes Actif 93 / 97 40% 1 25.05.2027 -
Federico Sellecchia Agropecuario Argentino Actif 113 / 117 40% 6 22.05.2027 -
Lucas Di Maio Cobresal Actif 72 / 69 40% 2 22.05.2027 -
Yastin Cuevas Colo-Colo Actif 94 / 102 40% 1 20.05.2027 -
Emiliano Bértoli Patronato Actif 89 / 104 40% 1 20.05.2027 -
Carlos Cabezas Depor Actif 71 / 73 40% 1 18.05.2027 -
Jack Ruddy Norwich City Actif 70 / 83 40% 1 17.05.2027 -
Coby Hewitson Sheffield United Actif 59 / 86 40% 1 17.05.2027 -
Maxwell Rodrigues Willem II Actif 83 / 81 40% 2 16.05.2027 -
Jing Reec Macarthur FC Actif 99 / 99 40% 3 14.05.2027 -
Álex Segura Real Santander Actif 95 / 92 40% 1 11.05.2027 -
Alessandro Di Munno Pro Patria Actif 90 / 103 40% 1 11.05.2027 -
Sebastian Kršlović Macarthur FC Actif 106 / 100 40% 1 10.05.2027 -
Chris Long Newport County Actif 80 / 98 40% 2 09.05.2027 -
Wataru Kamijo Sydney FC Actif 67 / 83 40% 3 09.05.2027 -
Lucas Ruiz Ferro Carril Oeste Actif 95 / 116 40% 1 08.05.2027 -
Juan Jaime San Martín Actif 79 / 106 40% 1 06.05.2027 -
Oscar Page Brisbane Roar Actif 76 / 71 40% 1 06.05.2027 -
Jack Warshawsky Melbourne Victory Actif 97 / 98 40% 4 05.05.2027 -
Yuval Kretzo Maccabi Petach Tikva Actif 96 / 72 40% 1 03.05.2027 -
Reggie Rose Tranmere Rovers Actif 76 / 63 40% 3 30.04.2027 -
Mauro Chacón Maipú Actif 69 / 92 40% 2 30.04.2027 -
Ollie Dewsbury Bristol Rovers Actif 72 / 69 40% 1 29.04.2027 -
Billy Phillips Bristol City Actif 57 / 80 40% 2 26.04.2027 -
Luciano Recalde Quilmes Actif 114 / 120 40% 2 25.04.2027 -
Arthur De Lima Central Coast Mariners Actif 108 / 97 40% 5 24.04.2027 -
Will Merry Milton Keynes Dons Actif 92 / 74 40% 2 23.04.2027 -
Juan Sebastián Rivero Progreso Actif 96 / 114 40% 2 22.04.2027 -
Santiago Amaral Artigas Actif 76 / 82 40% 1 22.04.2027 -
Olughu Chinemerem Fenix Actif 98 / 105 40% 1 22.04.2027 -
Jeremías Robledo Acosta Newell's Old Boys Actif 92 / 105 40% 1 22.04.2027 -
Brandon Álvarez Penarol Actif 71 / 100 40% 2 20.04.2027 -
Pablo Cáceres Morón Actif 88 / 90 40% 1 20.04.2027 -
Jake Waters Pontedera Actif 62 / 61 40% 2 18.04.2027 -
Franco García Ferro Carril Oeste Actif 93 / 99 40% 4 18.04.2027 -
Mohcine Hassan PSBS Biak Actif 72 / 70 40% 1 17.04.2027 -
Luca Duarte Arsenal Actif 68 / 86 40% 1 16.04.2027 -
Miguel Marulanda Envigado Actif 81 / 107 40% 1 15.04.2027 -
Leonardo Pais Cerro Actif 116 / 86 40% 1 14.04.2027 -
Bailey O'Neil Adelaide United Actif 82 / 91 40% 2 13.04.2027 -
Darren Robinson Doncaster Rovers Actif 74 / 83 40% 3 13.04.2027 -
Luca Pichin Wayttorn All Boys Actif 71 / 72 40% 2 12.04.2027 -
Bruno Barrionuevo Godoy Cruz Actif 94 / 97 40% 1 09.04.2027 -
Archie Harris Wigan Athletic Actif 69 / 72 40% 2 06.04.2027 -
David Reyes Bogota Actif 72 / 83 40% 1 06.04.2027 -
Juan Sebastián Ramírez Deportivo Cali Actif 102 / 98 40% 1 05.04.2027 -
Israel Monga Adelaide United Actif 70 / 80 40% 1 05.04.2027 -
Matías Améstica Santiago Wanderers Actif 86 / 86 40% 1 02.04.2027 -
Joaquín Canadell Quilmes Actif 89 / 101 40% 2 01.04.2027 -
Ángel Stringa Deportivo Riestra Actif 109 / 94 40% 1 01.04.2027 -
Faustino Piotti Newell's Old Boys Actif 88 / 99 40% 1 01.04.2027 -
Kristian Popovic Central Coast Mariners Actif 93 / 76 40% 2 30.03.2027 -
Noah McCann Central Coast Mariners Actif 63 / 77 40% 1 29.03.2027 -
Erik Ingebrethsen Sporting CP Actif 68 / 92 40% 1 29.03.2027 -
Thiago Luppi Ferro Carril Oeste Actif 95 / 103 40% 1 27.03.2027 -
Franco Pulian Chacarita Juniors Actif 79 / 93 40% 1 26.03.2027 -
Francisco Garrido Ferro Carril Oeste Actif 96 / 105 40% 1 26.03.2027 -
Harrison Chamberlain Colchester United Actif 63 / 69 40% 2 25.03.2027 -
Jerónimo Buosi Colón Actif 76 / 96 40% 2 24.03.2027 -
Benjamín Rodríguez Rentistas Actif 70 / 99 40% 2 22.03.2027 -
Zach Lisolajski Jubilo Iwata Actif 104 / 80 40% 1 21.03.2027 -
Claudio Salto Almagro Actif 105 / 103 40% 2 19.03.2027 -
Zachary De Jesus Sydney FC Actif 81 / 95 40% 4 18.03.2027 -
Caleb Roberts Plymouth Argyle Actif 74 / 74 40% 1 18.03.2027 -
Lucas Angelini Temperley Actif 117 / 117 40% 3 16.03.2027 -
Michael Pistiner Bnei Yehuda Actif 70 / 92 40% 2 13.03.2027 -
Thiago Yfran Temperley Actif 92 / 96 40% 1 13.03.2027 -
Ezequiel Ramírez All Boys Actif 112 / 103 40% 2 12.03.2027 -
Luciano Aberasteguy Deportivo Maldonado Actif 77 / 78 40% 1 10.03.2027 -
Sebastián Buitrago Atletico Nacional Actif 89 / 102 40% 1 08.03.2027 -
Zak Bradshaw Cambridge United Actif 74 / 98 40% 1 07.03.2027 -
Alejandro Gutiérrez Madryn Actif 112 / 105 40% 1 04.03.2027 -
Daniel Abello Mitre Actif 92 / 108 40% 1 02.03.2027 -
Luca Neu Utrecht Actif 104 / 105 40% 1 02.03.2027 -
Marcos Ferreira Miramar Misiones Actif 108 / 97 40% 1 02.03.2027 -
Donald Love Accrington Stanley Actif 82 / 84 40% 1 28.02.2027 -
Joel Erlinch Racing Actif 86 / 104 40% 2 27.02.2027 -
Joshua Inserra Melbourne Victory Actif 82 / 94 40% 2 26.02.2027 -
Franco Toloza Morón Actif 123 / 104 40% 3 25.02.2027 -
Maximiliano González Morón Actif 97 / 102 40% 2 24.02.2027 -
Connor Barratt Barnsley Actif 73 / 82 40% 1 24.02.2027 -
Noah Cooper Stoke City Actif 60 / 86 40% 1 24.02.2027 -
Fabricio Mendieta Belgrano Actif 103 / 100 40% 1 20.02.2027 -
Luciano Miño Newell's Old Boys Actif 99 / 90 40% 1 19.02.2027 -
Valentín Quevedo Colegiales Actif 118 / 118 40% 2 18.02.2027 -
Brian Martínez Huracán Actif 102 / 90 40% 1 18.02.2027 -
Daniel Zapata Envigado Actif 81 / 112 40% 1 18.02.2027 -
Liam Gibson Harrogate Town Actif 79 / 68 40% 1 18.02.2027 -
Thiago Gigena Casarano Actif 95 / 70 40% 1 15.02.2027 -
Ben Middlemas Swindon Town Actif 92 / 85 40% 1 15.02.2027 -
Alan Sosa Defensores Unidos Actif 106 / 112 40% 1 15.02.2027 -
Kieran Wilson Exeter City Actif 76 / 80 40% 2 13.02.2027 -
Wonderson Yakubu Hapoel Raanana Actif 52 / 59 40% 2 12.02.2027 -
Matías Batule Mitre Actif 101 / 97 40% 1 12.02.2027 -
Valentín Catalán Argentinos Juniors Actif 99 / 109 40% 1 12.02.2027 -
Jacob Poytress Cheltenham Town Actif 56 / 64 40% 1 10.02.2027 -
Gonzalo Laborda Racing Actif 100 / 99 40% 1 10.02.2027 -
Julián Ledesma Arsenal Actif 68 / 78 40% 2 09.02.2027 -
Neo Dobson Northampton Town Actif 81 / 93 40% 1 09.02.2027 -
Ryan Kitto Adelaide United Actif 101 / 94 40% 1 08.02.2027 -
Liam Jessop Chesterfield Actif 83 / 66 40% 3 07.02.2027 -
Ryan Howley Bristol Rovers Actif 102 / 95 40% 1 07.02.2027 -
Angus Kilkolly Auckland City Actif 80 / 75 40% 1 06.02.2027 -
Ignacio Giacinti Patronato Actif 102 / 92 40% 1 06.02.2027 -
Santiago Daniele Chacarita Juniors Actif 119 / 123 40% 1 06.02.2027 -
Carlos Richards Bromley Actif 85 / 61 40% 1 04.02.2027 -
Santiago Lallana Racing Actif 88 / 98 40% 1 03.02.2027 -
Juan Manuel Mazzolo Maipú Actif 97 / 93 40% 1 02.02.2027 -
Harry McGlinchey Sheffield United Actif 93 / 84 40% 1 02.02.2027 -
Guillermo Rodríguez San Martín Actif 90 / 108 40% 1 01.02.2027 -
Rodrigo Arnay Güemes Actif 103 / 80 40% 1 31.01.2027 -
Harry French Colchester United Actif 69 / 84 40% 1 26.01.2027 -
James Hilton Macarthur FC Actif 79 / 78 40% 1 26.01.2027 -
Tiernan Brooks Colchester United Actif 67 / 91 40% 3 24.01.2027 -
Zahir Yunis Colón Actif 92 / 117 40% 1 23.01.2027 -
Yoimer Pacheco Union Magdalena Actif 84 / 68 40% 1 19.01.2027 -
Mateo Albornoz Unión de Santa Fe Actif 81 / 94 40% 1 15.01.2027 -
Matías Cantero All Boys Actif 88 / 83 40% 1 13.01.2027 -
Facundo da Costa Cerro Largo Actif 72 / 92 40% 1 10.01.2027 -
Franco Caro Defensores Actif 87 / 93 40% 1 08.01.2027 -
Gonzalo Sosa Defensa y Justicia Actif 71 / 75 40% 1 07.01.2027 -
Felipe Tempone Independiente Actif 91 / 78 40% 1 07.01.2027 -
Revans Reddy Suva Actif 47 / 48 51% 1 01.01.2027 -
Hernán Sanabria Barracas Central Actif 91 / 73 40% 1 01.01.2027 -
Facundo Maldonado Gimnasia y Esgrima Actif 110 / 80 40% 1 31.12.2026 -
Connor Wolfheimer Brentford Actif 61 / 55 40% 1 30.12.2026 -
Ewan Griffiths Cardiff City Actif 70 / 71 40% 1 29.12.2026 -
Sebastián Alzate Once Caldas Actif 83 / 93 40% 3 28.12.2026 -
Seb Stacey Milton Keynes Dons Actif 62 / 59 40% 2 28.12.2026 -
David Mojica Union Magdalena Actif 78 / 72 40% 1 24.12.2026 -
Benjamín Zuqui Patronato Actif 84 / 107 40% 1 24.12.2026 -
Branco Ripoll Aldosivi Actif 69 / 104 40% 1 23.12.2026 -
Mateo Telechea Liverpool Montevideo Actif 85 / 77 40% 1 23.12.2026 -
Aron Agüero Maipú Actif 124 / 124 40% 1 20.12.2026 -
Juan Fernándes Pinto Almagro Actif 119 / 100 40% 1 20.12.2026 -
Tobías Barrionuevo Gimnasia y Tiro Actif 61 / 75 40% 1 19.12.2026 -
Santiago Garro Almirante Brown Actif 82 / 106 40% 1 18.12.2026 -
Emiliano Zacca Deportivo Riestra Actif 99 / 88 40% 1 17.12.2026 -
Matías Escobar San Miguel Actif 78 / 98 40% 2 15.12.2026 -
Ashton Rinaldo Chesterfield Actif 75 / 68 40% 1 15.12.2026 -
Catriel Peña Racing Actif 87 / 103 40% 1 14.12.2026 -
Gianluca Banuera Tristán Suárez Actif 76 / 94 40% 1 14.12.2026 -
Bless Akolbire Leicester City Actif 66 / 73 40% 1 14.12.2026 -
Chanse Headman Harrogate Town Actif 93 / 88 40% 1 13.12.2026 -
Federico Montiel Agropecuario Argentino Actif 84 / 105 40% 1 12.12.2026 -
Luciano Paredes Maipú Actif 84 / 99 40% 1 11.12.2026 -
Julián Aquino Atlanta Actif 93 / 107 40% 1 10.12.2026 -
Tomás López River Plate Actif 107 / 103 40% 1 09.12.2026 -
Rafael Hornos Liverpool Montevideo Actif 93 / 76 40% 1 08.12.2026 -
Jack Thompson Derby County Actif 74 / 57 40% 1 08.12.2026 -
Miloš Jovičić Zabbar St. Patrick Actif 71 / 115 40% 1 07.12.2026 -
Joaquín Toranzo Sarmiento Actif 67 / 80 40% 1 05.12.2026 -
Francisco Robinson San Martín Actif 97 / 101 40% 1 05.12.2026 -
Tomás Chetelain Estudiantes Actif 95 / 92 40% 3 03.12.2026 -
Joaquín Nazar Maipú Actif 74 / 72 40% 1 03.12.2026 -
Gonzalo de Mello Liverpool Montevideo Actif 92 / 103 40% 1 03.12.2026 -
Owen Mason Mansfield Town Actif 78 / 80 40% 1 03.12.2026 -
Enzo Arrubia Almirante Brown Actif 80 / 91 40% 4 02.12.2026 -
Nicolás Casa Gimnasia y Esgrima Actif 87 / 92 40% 1 02.12.2026 -
Federico Bonilla Nacional Actif 95 / 82 40% 2 01.12.2026 -
Fabian Talladira Adelaide United Actif 79 / 100 40% 2 01.12.2026 -
Luca Regiardo Newell's Old Boys Actif 100 / 101 40% 1 30.11.2026 -
Facundo Binzugna Boca Juniors Actif 98 / 101 40% 2 29.11.2026 -
Axel Araujo San Lorenzo Actif 91 / 75 40% 1 29.11.2026 -
Caleb Ansen Grimsby Town Actif 92 / 85 40% 1 29.11.2026 -
Oliver Armstrong Crewe Alexandra Actif 82 / 73 40% 1 27.11.2026 -
Emanuel Sittaro Instituto Actif 97 / 94 40% 2 26.11.2026 -
Gerónimo Tomasetti Temperley Actif 95 / 103 40% 2 26.11.2026 -
Diego Valencia Universidad Catolica Actif 118 / 100 40% 4 24.11.2026 -
Tiziano Delias Sarmiento Actif 91 / 91 40% 2 24.11.2026 -
Szymon Terenowicz Birmingham Actif 84 / 73 40% 2 24.11.2026 -
Sammy Henia-Kamau Colchester United Actif 59 / 69 40% 1 24.11.2026 -
Daeshon Lawrence Bolton Wanderers Actif 70 / 85 40% 1 22.11.2026 -
Benji Wetshi Burnley Actif 65 / 90 40% 1 22.11.2026 -
Santino Gianoli Almirante Brown Actif 92 / 102 40% 1 21.11.2026 -
Tomás Romero Unión de Santa Fe Actif 84 / 113 40% 1 20.11.2026 -
Bruno Hernández Cerro Largo Actif 94 / 105 40% 1 19.11.2026 -
Aaron Vera Maipú Actif 103 / 102 40% 1 18.11.2026 -
Bautista La Licata Belgrano Actif 81 / 104 40% 1 17.11.2026 -
Joe Collins Swansea City Actif 49 / 55 40% 1 16.11.2026 -
Chrisnovic N'sa Gzira United Actif 101 / 81 40% 1 16.11.2026 -
Andriano Lebib Perth Glory Actif 89 / 91 40% 2 14.11.2026 -
Rodrigo Frutos Olimpia Actif 98 / 113 40% 2 14.11.2026 -
Fabián Palomino Ayacucho Actif 92 / 68 40% 1 13.11.2026 -
Germán Barbas Penarol Actif 90 / 111 40% 1 12.11.2026 -
Thiago Nahuel Independiente Actif 80 / 80 40% 1 11.11.2026 -
Facundo Di Sibio Agropecuario Argentino Actif 89 / 79 40% 1 11.11.2026 -
Juan Farías Defensores Unidos Actif 100 / 100 40% 2 10.11.2026 -
Federico Ricca Belgrano Actif 112 / 128 40% 1 10.11.2026 -
Rodrigo González Estudiantes Actif 106 / 110 40% 2 09.11.2026 -
Diego Capdevila Cerro Actif 85 / 86 40% 1 09.11.2026 -
Cristhofer Mesías Universidad de Concepcion Actif 96 / 116 40% 1 09.11.2026 -
Alex Villa González Atlético Tucumán Actif 74 / 72 40% 1 08.11.2026 -
Adrián Csenterics Estudiantes de Merida Actif 107 / 110 40% 2 07.11.2026 -
Exequiel Quintana Temperley Actif 70 / 90 40% 2 07.11.2026 -
Víctor Machado Independiente Rivadavia Actif 88 / 89 40% 1 07.11.2026 -
Juan Flórez Valledupar Actif 80 / 75 40% 1 07.11.2026 -
Lautaro Díaz San Martín Actif 81 / 78 40% 2 06.11.2026 -
Alejandro Garay Independiente Actif 100 / 84 40% 2 06.11.2026 -
Daniel Simon Auckland City Actif 63 / 65 40% 1 06.11.2026 -
Thiago Cano Banfield Actif 71 / 99 40% 3 05.11.2026 -
David Fernández Unión de Santa Fe Actif 66 / 94 40% 2 03.11.2026 -
Gonzalo Tapia Palestino Actif 116 / 99 40% 2 02.11.2026 -
Juan Francisco Rossel Universidad Catolica Actif 108 / 85 40% 1 02.11.2026 -
Carlo Lattanzio San Martín SJ Actif 121 / 110 40% 1 31.10.2026 -
Tomás Arias Independiente Rivadavia Actif 98 / 107 40% 1 31.10.2026 -
Álbaro Polo Portuguesa Actif 87 / 108 40% 1 30.10.2026 -
Freddy Molina Union Magdalena Actif 84 / 87 40% 1 29.10.2026 -
Leandro Ortiz San Miguel Actif 71 / 81 40% 1 27.10.2026 -
Iván Cartés Rentistas Actif 82 / 81 40% 1 25.10.2026 -
Rodrigo Stocco Temperley Actif 95 / 77 40% 1 25.10.2026 -
Román Zalazar Nueva Chicago Actif 82 / 110 40% 1 25.10.2026 -
Tiago Marghetich Quilmes Actif 94 / 90 40% 3 24.10.2026 -
Nicolás Nagel Colón Actif 97 / 98 40% 2 24.10.2026 -
Dennis Mena Santa Fe Actif 99 / 90 40% 1 24.10.2026 -
Alberto Martínez Guarani Actif 93 / 76 40% 1 24.10.2026 -
Vito Rosané Estudiantes Actif 94 / 68 40% 1 21.10.2026 -
Jorge Georgieff Estudiantes Actif 92 / 87 40% 1 21.10.2026 -
Duván Mósquera Aguilas Doradas Actif 119 / 97 40% 2 20.10.2026 -
Michael Waine Southern United Actif 80 / 90 40% 1 20.10.2026 -
Jorge Martínez Deportivo Pereira Actif 73 / 94 40% 1 19.10.2026 -
Juan David Ramírez Leones Actif 59 / 68 40% 1 19.10.2026 -
Luther Rueda Deportivo Pasto Actif 83 / 84 40% 1 18.10.2026 -
Maicol León Huachipato Actif 76 / 104 40% 1 18.10.2026 -
Facundo Ledesma Mitre Actif 94 / 77 40% 1 16.10.2026 -
Tobías Ganduglia Independiente Rivadavia Actif 87 / 106 40% 1 15.10.2026 -
Emiliano Zambrano Gimnasia y Esgrima Actif 79 / 99 40% 1 14.10.2026 -
Tomás Soto Envigado Actif 104 / 99 40% 1 14.10.2026 -
Juan Esteban García Deportes Tolima Actif 72 / 89 40% 1 14.10.2026 -
Facundo Pérez Juventud Actif 107 / 100 40% 1 13.10.2026 -
Rotceh Aguilar Cienciano Actif 102 / 84 40% 1 13.10.2026 -
David Agudelo Depor Actif 108 / 79 40% 2 12.10.2026 -
Thomás Romero Agropecuario Argentino Actif 67 / 101 40% 1 12.10.2026 -
Carlos Hernández Deportivo Riestra Actif 97 / 84 40% 1 11.10.2026 -
Jeyson Rojas Colo-Colo Actif 105 / 89 40% 1 11.10.2026 -
Valentín Sosa Godoy Cruz Actif 77 / 55 40% 1 10.10.2026 -
Mateo Cirigliano Almagro Actif 85 / 87 40% 1 08.10.2026 -
Juan Álvarez Argentinos Juniors Actif 96 / 100 40% 1 08.10.2026 -
Máximo Cabrera Gimnasia La Plata Actif 63 / 79 40% 1 08.10.2026 -
Mathías Bernatene Liverpool Montevideo Actif 105 / 115 40% 1 07.10.2026 -
Thiago Perruisset Boca Juniors Actif 70 / 102 40% 1 07.10.2026 -
Santiago Rátiva Tigres Actif 71 / 83 40% 1 06.10.2026 -
Conrado Ibarra Colón Actif 100 / 96 40% 1 05.10.2026 -
Walberto Agámez Alianza Petrolera Actif 71 / 95 40% 1 04.10.2026 -
Juan Rodríguez Wanderers Actif 76 / 93 40% 1 03.10.2026 -
Joshua Carabajal Barracas Central Actif 95 / 66 40% 1 03.10.2026 -
Lautaro Pertusatti River Plate Actif 122 / 108 40% 1 28.09.2026 -
Sabino González Sarmiento Actif 72 / 93 40% 1 23.09.2026 -
Thomas Correa Chacarita Juniors Actif 71 / 95 40% 1 22.09.2026 -
Manuel Núñez Tacuarembo Actif 77 / 102 40% 1 21.09.2026 -
Ignacio Abarza Huracán Actif 104 / 110 40% 1 21.09.2026 -
Joel Abraham Boston River Actif 81 / 106 40% 1 19.09.2026 -
Lautaro Occhiuzzi Atlanta Actif 89 / 100 40% 1 18.09.2026 -
Luciano Cingolani Gimnasia y Esgrima Actif 101 / 107 40% 1 18.09.2026 -
Laureano Paez Colón Actif 91 / 82 40% 1 18.09.2026 -
Jerónimo Gutiérrez Independiente Rivadavia Actif 75 / 84 40% 1 16.09.2026 -
Andrew Zamorano Rewa Actif 87 / 98 40% 1 16.09.2026 -
Valentino Buccolo Platense Actif 67 / 64 40% 1 16.09.2026 -
Agustín Páez Maipú Actif 91 / 103 40% 1 14.09.2026 -
Sotiri Phillis Adelaide United Actif 80 / 88 40% 1 10.09.2026 -
Sebastián Dátolo Tristán Suárez Actif 66 / 90 40% 1 10.09.2026 -
Abel Galbán Colón Actif 100 / 80 40% 1 08.09.2026 -
Leonel Troncoso Gimnasia La Plata Actif 74 / 99 40% 1 07.09.2026 -
Jano Franco Independiente Rivadavia Actif 86 / 87 40% 1 06.09.2026 -
Diego Méndez Tacuarembo Actif 108 / 88 40% 2 04.09.2026 -
Luis Guevara Real Cartagena Actif 116 / 98 40% 2 04.09.2026 -
Tiago Esidín Ferro Carril Oeste Actif 90 / 105 40% 1 04.09.2026 -
Dante Jadli Temperley Actif 67 / 86 40% 1 04.09.2026 -
Juan Agustín Lorenzo Defensores Unidos Actif 92 / 75 40% 1 03.09.2026 -
Nicolás Filippa Sarmiento Actif 92 / 83 40% 1 03.09.2026 -
Jesús Mejía Real Santander Actif 71 / 80 40% 1 01.09.2026 -
Santino Gallardo Platense Actif 95 / 102 40% 1 30.08.2026 -
Axel Bordón Güemes Actif 103 / 97 40% 1 29.08.2026 -
Lautaro Duarte Deportivo Riestra Actif 98 / 106 40% 1 28.08.2026 -
Joaquín Mancuso Vélez Actif 86 / 78 40% 1 27.08.2026 -
Ezequiel Bulacio Morón Actif 91 / 88 40% 1 26.08.2026 -
Joaquín Santos Almirante Brown Actif 75 / 82 40% 1 25.08.2026 -
Martín Rodríguez Mitre Actif 95 / 109 40% 1 19.08.2026 -
Oscar Cáceres Sportivo Luqueno Actif 100 / 75 40% 1 17.08.2026 -
Hugo Gaona Sportivo Luqueno Actif 74 / 81 40% 1 12.08.2026 -
Kevin Lezcano Guarani Actif 66 / 88 40% 1 11.08.2026 -
Adam Bell Auckland City Actif 69 / 84 40% 1 08.08.2026 -
Juan Cekalovich Gimnasia y Esgrima Actif 105 / 94 40% 1 07.08.2026 -
Santiago Jiménez Real Santander Actif 97 / 71 40% 1 07.08.2026 -
Ben Warland Brisbane Roar Actif 86 / 87 40% 1 07.08.2026 -
Lionel Brito Almirante Brown Actif 60 / 87 40% 1 06.08.2026 -
Juan Pablo Moreno Defensa y Justicia Actif 75 / 105 40% 1 06.08.2026 -
Renato Ardissono San Lorenzo Actif 89 / 92 40% 1 06.08.2026 -
Christian Valladolid Alianza Atletico Actif 68 / 81 40% 1 05.08.2026 -
Benjamín Iriart Tigre Actif 57 / 73 40% 1 05.08.2026 -
Mateo Ortale Maipú Actif 107 / 89 40% 1 04.08.2026 -
Nazareno Mercado Chacarita Juniors Actif 75 / 84 40% 1 04.08.2026 -
Francisco Ginella Albion Actif 115 / 95 40% 1 04.08.2026 -
Augusto Kalayda Banfield Actif 80 / 66 40% 1 04.08.2026 -
Ignacio Álvarez San Telmo Actif 79 / 81 40% 1 03.08.2026 -
Nazareno Fernández Colombo Los Andes Actif 108 / 114 40% 1 02.08.2026 -
Thiago Yossen Madryn Actif 103 / 91 40% 1 02.08.2026 -
Enzo Cabrera Danubio Actif 85 / 125 40% 1 01.08.2026 -
Leandro Ciccolini Gimnasia y Esgrima Actif 126 / 99 40% 1 01.08.2026 -